sensor_id;sensor_type;location;lat;lon;timestamp;temperature;humidity
21061;DHT22;10689;50.836;3.266;2022-11-25T00:01:10;10.60;99.90
21061;DHT22;10689;50.836;3.266;2022-11-25T00:03:42;10.60;99.90
21061;DHT22;10689;50.836;3.266;2022-11-25T00:06:11;10.60;99.90
21061;DHT22;10689;50.836;3.266;2022-11-25T00:08:38;10.60;99.90
21061;DHT22;10689;50.836;3.266;2022-11-25T00:11:05;10.50;99.90
21061;DHT22;10689;50.836;3.266;2022-11-25T00:13:31;10.50;99.90
21061;DHT22;10689;50.836;3.266;2022-11-25T00:16:01;10.50;99.90
21061;DHT22;10689;50.836;3.266;2022-11-25T00:18:28;10.50;99.90
21061;DHT22;10689;50.836;3.266;2022-11-25T00:20:54;10.50;99.90
21061;DHT22;10689;50.836;3.266;2022-11-25T00:23:22;10.50;99.90
21061;DHT22;10689;50.836;3.266;2022-11-25T00:25:48;10.40;99.90
21061;DHT22;10689;50.836;3.266;2022-11-25T00:28:14;10.40;99.90
21061;DHT22;10689;50.836;3.266;2022-11-25T00:30:40;10.40;99.90
21061;DHT22;10689;50.836;3.266;2022-11-25T00:33:06;10.40;99.90
21061;DHT22;10689;50.836;3.266;2022-11-25T00:35:34;10.30;99.90
21061;DHT22;10689;50.836;3.266;2022-11-25T00:38:00;10.30;99.90
21061;DHT22;10689;50.836;3.266;2022-11-25T00:40:26;10.40;99.90
21061;DHT22;10689;50.836;3.266;2022-11-25T00:42:52;10.40;99.90
21061;DHT22;10689;50.836;3.266;2022-11-25T00:45:36;10.40;99.90
21061;DHT22;10689;50.836;3.266;2022-11-25T00:48:05;10.40;99.90
21061;DHT22;10689;50.836;3.266;2022-11-25T00:50:31;10.30;99.90
21061;DHT22;10689;50.836;3.266;2022-11-25T00:52:58;10.40;99.90
21061;DHT22;10689;50.836;3.266;2022-11-25T00:55:24;10.40;99.90
21061;DHT22;10689;50.836;3.266;2022-11-25T00:57:52;10.40;99.90
21061;DHT22;10689;50.836;3.266;2022-11-25T01:00:18;10.40;99.90
21061;DHT22;10689;50.836;3.266;2022-11-25T01:02:44;10.30;99.90
21061;DHT22;10689;50.836;3.266;2022-11-25T01:05:09;10.40;99.90
21061;DHT22;10689;50.836;3.266;2022-11-25T01:07:38;10.40;99.90
21061;DHT22;10689;50.836;3.266;2022-11-25T01:10:07;10.40;99.90
21061;DHT22;10689;50.836;3.266;2022-11-25T01:12:35;10.30;99.90
21061;DHT22;10689;50.836;3.266;2022-11-25T01:15:01;10.50;99.90
21061;DHT22;10689;50.836;3.266;2022-11-25T01:17:29;10.50;99.90
21061;DHT22;10689;50.836;3.266;2022-11-25T01:20:00;10.40;99.90
21061;DHT22;10689;50.836;3.266;2022-11-25T01:22:28;10.40;99.90
21061;DHT22;10689;50.836;3.266;2022-11-25T01:24:58;10.30;99.90
21061;DHT22;10689;50.836;3.266;2022-11-25T01:27:24;10.30;99.90
21061;DHT22;10689;50.836;3.266;2022-11-25T01:29:50;10.30;99.90
21061;DHT22;10689;50.836;3.266;2022-11-25T01:32:15;10.30;99.90
21061;DHT22;10689;50.836;3.266;2022-11-25T01:34:41;10.20;99.90
21061;DHT22;10689;50.836;3.266;2022-11-25T01:37:10;10.20;99.90
21061;DHT22;10689;50.836;3.266;2022-11-25T01:39:36;10.10;99.90
21061;DHT22;10689;50.836;3.266;2022-11-25T01:42:03;10.00;99.90
21061;DHT22;10689;50.836;3.266;2022-11-25T01:44:31;10.00;99.90
21061;DHT22;10689;50.836;3.266;2022-11-25T01:49:59;9.90;99.90
21061;DHT22;10689;50.836;3.266;2022-11-25T01:52:33;10.20;99.90
21061;DHT22;10689;50.836;3.266;2022-11-25T01:55:10;10.20;99.90
21061;DHT22;10689;50.836;3.266;2022-11-25T01:57:47;10.20;99.90
21061;DHT22;10689;50.836;3.266;2022-11-25T02:00:15;10.20;99.90
21061;DHT22;10689;50.836;3.266;2022-11-25T02:02:42;10.20;99.90
21061;DHT22;10689;50.836;3.266;2022-11-25T02:05:12;10.10;99.90
21061;DHT22;10689;50.836;3.266;2022-11-25T02:07:45;10.10;99.90
21061;DHT22;10689;50.836;3.266;2022-11-25T02:10:21;10.10;99.90
21061;DHT22;10689;50.836;3.266;2022-11-25T02:12:51;10.20;99.90
21061;DHT22;10689;50.836;3.266;2022-11-25T02:15:17;10.20;99.90
21061;DHT22;10689;50.836;3.266;2022-11-25T02:17:43;10.10;99.90
21061;DHT22;10689;50.836;3.266;2022-11-25T02:20:15;10.20;99.90
21061;DHT22;10689;50.836;3.266;2022-11-25T02:22:52;10.20;99.90
21061;DHT22;10689;50.836;3.266;2022-11-25T02:25:26;10.20;99.90
21061;DHT22;10689;50.836;3.266;2022-11-25T02:28:14;10.20;99.90
21061;DHT22;10689;50.836;3.266;2022-11-25T02:30:44;10.40;99.90
21061;DHT22;10689;50.836;3.266;2022-11-25T02:33:11;10.40;99.90
21061;DHT22;10689;50.836;3.266;2022-11-25T02:35:39;10.40;99.90
21061;DHT22;10689;50.836;3.266;2022-11-25T02:40:54;10.40;99.90
21061;DHT22;10689;50.836;3.266;2022-11-25T02:43:24;10.40;99.90
21061;DHT22;10689;50.836;3.266;2022-11-25T02:46:20;10.40;99.90
21061;DHT22;10689;50.836;3.266;2022-11-25T02:48:46;10.40;99.90
21061;DHT22;10689;50.836;3.266;2022-11-25T02:51:18;10.30;99.90
21061;DHT22;10689;50.836;3.266;2022-11-25T02:53:46;10.30;99.90
21061;DHT22;10689;50.836;3.266;2022-11-25T02:56:14;10.30;99.90
21061;DHT22;10689;50.836;3.266;2022-11-25T02:58:41;10.30;99.90
21061;DHT22;10689;50.836;3.266;2022-11-25T03:01:10;10.40;99.90
21061;DHT22;10689;50.836;3.266;2022-11-25T03:03:39;10.50;99.90
21061;DHT22;10689;50.836;3.266;2022-11-25T03:06:07;10.50;99.90
21061;DHT22;10689;50.836;3.266;2022-11-25T03:08:36;10.40;99.90
21061;DHT22;10689;50.836;3.266;2022-11-25T03:11:03;10.50;99.90
21061;DHT22;10689;50.836;3.266;2022-11-25T03:13:28;10.50;99.90
21061;DHT22;10689;50.836;3.266;2022-11-25T03:15:54;10.50;99.90
21061;DHT22;10689;50.836;3.266;2022-11-25T03:18:23;10.50;99.90
21061;DHT22;10689;50.836;3.266;2022-11-25T03:20:53;10.40;99.90
21061;DHT22;10689;50.836;3.266;2022-11-25T03:23:20;10.30;99.90
21061;DHT22;10689;50.836;3.266;2022-11-25T03:25:46;10.40;99.90
21061;DHT22;10689;50.836;3.266;2022-11-25T03:28:12;10.50;99.90
21061;DHT22;10689;50.836;3.266;2022-11-25T03:30:40;10.30;99.90
21061;DHT22;10689;50.836;3.266;2022-11-25T03:33:09;10.20;99.90
21061;DHT22;10689;50.836;3.266;2022-11-25T03:35:35;10.00;99.90
21061;DHT22;10689;50.836;3.266;2022-11-25T03:38:01;10.10;99.90
21061;DHT22;10689;50.836;3.266;2022-11-25T03:40:26;10.00;99.90
21061;DHT22;10689;50.836;3.266;2022-11-25T03:42:53;10.10;99.90
21061;DHT22;10689;50.836;3.266;2022-11-25T03:45:18;10.20;99.90
21061;DHT22;10689;50.836;3.266;2022-11-25T03:47:45;10.10;99.90
21061;DHT22;10689;50.836;3.266;2022-11-25T03:50:13;10.00;99.90
21061;DHT22;10689;50.836;3.266;2022-11-25T03:52:39;10.00;99.90
21061;DHT22;10689;50.836;3.266;2022-11-25T03:55:06;10.00;99.90
21061;DHT22;10689;50.836;3.266;2022-11-25T03:57:33;10.00;99.90
21061;DHT22;10689;50.836;3.266;2022-11-25T03:59:59;10.00;99.90
21061;DHT22;10689;50.836;3.266;2022-11-25T04:02:27;9.90;99.90
21061;DHT22;10689;50.836;3.266;2022-11-25T04:04:53;9.90;99.90
21061;DHT22;10689;50.836;3.266;2022-11-25T04:07:19;9.80;99.90
21061;DHT22;10689;50.836;3.266;2022-11-25T04:09:46;9.70;99.90
21061;DHT22;10689;50.836;3.266;2022-11-25T04:12:12;9.80;99.90
21061;DHT22;10689;50.836;3.266;2022-11-25T04:14:56;9.80;99.90
21061;DHT22;10689;50.836;3.266;2022-11-25T04:17:22;9.80;99.90
21061;DHT22;10689;50.836;3.266;2022-11-25T04:19:52;9.80;99.90
21061;DHT22;10689;50.836;3.266;2022-11-25T04:22:20;9.80;99.90
21061;DHT22;10689;50.836;3.266;2022-11-25T04:24:46;9.70;99.90
21061;DHT22;10689;50.836;3.266;2022-11-25T04:27:14;9.60;99.90
21061;DHT22;10689;50.836;3.266;2022-11-25T04:29:40;9.70;99.90
21061;DHT22;10689;50.836;3.266;2022-11-25T04:32:08;9.70;99.90
21061;DHT22;10689;50.836;3.266;2022-11-25T04:34:34;9.70;99.90
21061;DHT22;10689;50.836;3.266;2022-11-25T04:37:05;9.70;99.90
21061;DHT22;10689;50.836;3.266;2022-11-25T04:39:35;9.60;99.90
21061;DHT22;10689;50.836;3.266;2022-11-25T04:42:04;9.50;99.90
21061;DHT22;10689;50.836;3.266;2022-11-25T04:44:48;9.50;99.90
21061;DHT22;10689;50.836;3.266;2022-11-25T04:47:16;9.50;99.90
21061;DHT22;10689;50.836;3.266;2022-11-25T04:49:42;9.50;99.90
21061;DHT22;10689;50.836;3.266;2022-11-25T04:52:09;9.40;99.90
21061;DHT22;10689;50.836;3.266;2022-11-25T04:54:35;9.30;99.90
21061;DHT22;10689;50.836;3.266;2022-11-25T04:57:03;9.30;99.90
21061;DHT22;10689;50.836;3.266;2022-11-25T04:59:29;9.30;99.90
21061;DHT22;10689;50.836;3.266;2022-11-25T05:02:23;9.30;99.90
21061;DHT22;10689;50.836;3.266;2022-11-25T05:04:52;9.30;99.90
21061;DHT22;10689;50.836;3.266;2022-11-25T05:07:19;9.40;99.90
21061;DHT22;10689;50.836;3.266;2022-11-25T05:09:48;9.40;99.90
21061;DHT22;10689;50.836;3.266;2022-11-25T05:12:17;9.40;99.90
21061;DHT22;10689;50.836;3.266;2022-11-25T05:14:43;9.40;99.90
21061;DHT22;10689;50.836;3.266;2022-11-25T05:17:14;9.30;99.90
21061;DHT22;10689;50.836;3.266;2022-11-25T05:19:40;9.30;99.90
21061;DHT22;10689;50.836;3.266;2022-11-25T05:22:10;9.30;99.90
21061;DHT22;10689;50.836;3.266;2022-11-25T05:24:36;9.30;99.90
21061;DHT22;10689;50.836;3.266;2022-11-25T05:27:02;9.30;99.90
21061;DHT22;10689;50.836;3.266;2022-11-25T05:29:30;9.20;99.90
21061;DHT22;10689;50.836;3.266;2022-11-25T05:31:59;9.20;99.90
21061;DHT22;10689;50.836;3.266;2022-11-25T05:34:27;9.30;99.90
21061;DHT22;10689;50.836;3.266;2022-11-25T05:36:54;9.40;99.90
21061;DHT22;10689;50.836;3.266;2022-11-25T05:39:20;9.50;99.90
21061;DHT22;10689;50.836;3.266;2022-11-25T05:41:46;9.40;99.90
21061;DHT22;10689;50.836;3.266;2022-11-25T05:44:12;9.40;99.90
21061;DHT22;10689;50.836;3.266;2022-11-25T05:46:38;9.40;99.90
21061;DHT22;10689;50.836;3.266;2022-11-25T05:49:04;9.50;99.90
21061;DHT22;10689;50.836;3.266;2022-11-25T05:51:34;9.50;99.90
21061;DHT22;10689;50.836;3.266;2022-11-25T05:53:59;9.50;99.90
21061;DHT22;10689;50.836;3.266;2022-11-25T05:56:25;9.50;99.90
21061;DHT22;10689;50.836;3.266;2022-11-25T05:58:51;9.50;99.90
21061;DHT22;10689;50.836;3.266;2022-11-25T06:01:19;9.50;99.90
21061;DHT22;10689;50.836;3.266;2022-11-25T06:03:48;9.50;99.90
21061;DHT22;10689;50.836;3.266;2022-11-25T06:06:18;9.40;99.90
21061;DHT22;10689;50.836;3.266;2022-11-25T06:08:48;9.40;99.90
21061;DHT22;10689;50.836;3.266;2022-11-25T06:11:17;9.20;99.90
21061;DHT22;10689;50.836;3.266;2022-11-25T06:13:43;9.30;99.90
21061;DHT22;10689;50.836;3.266;2022-11-25T06:16:28;9.20;99.90
21061;DHT22;10689;50.836;3.266;2022-11-25T06:18:56;9.30;99.90
21061;DHT22;10689;50.836;3.266;2022-11-25T06:21:22;9.40;99.90
21061;DHT22;10689;50.836;3.266;2022-11-25T06:23:48;9.30;99.90
21061;DHT22;10689;50.836;3.266;2022-11-25T06:26:19;9.30;99.90
21061;DHT22;10689;50.836;3.266;2022-11-25T06:28:46;9.30;99.90
21061;DHT22;10689;50.836;3.266;2022-11-25T06:31:20;9.20;99.90
21061;DHT22;10689;50.836;3.266;2022-11-25T06:33:50;9.40;99.90
21061;DHT22;10689;50.836;3.266;2022-11-25T06:36:18;9.40;99.90
21061;DHT22;10689;50.836;3.266;2022-11-25T06:38:48;9.50;99.90
21061;DHT22;10689;50.836;3.266;2022-11-25T06:41:19;9.40;99.90
21061;DHT22;10689;50.836;3.266;2022-11-25T06:43:45;9.50;99.90
21061;DHT22;10689;50.836;3.266;2022-11-25T06:46:15;9.50;99.90
21061;DHT22;10689;50.836;3.266;2022-11-25T06:48:43;9.50;99.90
21061;DHT22;10689;50.836;3.266;2022-11-25T06:51:13;9.40;99.90
21061;DHT22;10689;50.836;3.266;2022-11-25T06:53:40;9.60;99.90
21061;DHT22;10689;50.836;3.266;2022-11-25T06:56:23;9.40;99.90
21061;DHT22;10689;50.836;3.266;2022-11-25T06:58:50;9.20;99.90
21061;DHT22;10689;50.836;3.266;2022-11-25T07:01:24;8.90;99.90
21061;DHT22;10689;50.836;3.266;2022-11-25T07:03:52;8.80;99.90
21061;DHT22;10689;50.836;3.266;2022-11-25T07:06:19;8.90;99.90
21061;DHT22;10689;50.836;3.266;2022-11-25T07:08:48;9.00;99.90
21061;DHT22;10689;50.836;3.266;2022-11-25T07:11:24;9.00;99.90
21061;DHT22;10689;50.836;3.266;2022-11-25T07:13:52;9.20;99.90
21061;DHT22;10689;50.836;3.266;2022-11-25T07:16:19;9.20;99.90
21061;DHT22;10689;50.836;3.266;2022-11-25T07:18:45;9.30;99.90
21061;DHT22;10689;50.836;3.266;2022-11-25T07:21:19;9.40;99.90
21061;DHT22;10689;50.836;3.266;2022-11-25T07:23:48;9.50;99.90
21061;DHT22;10689;50.836;3.266;2022-11-25T07:26:20;9.50;99.90
21061;DHT22;10689;50.836;3.266;2022-11-25T07:28:47;9.60;99.90
21061;DHT22;10689;50.836;3.266;2022-11-25T07:31:19;9.70;99.90
21061;DHT22;10689;50.836;3.266;2022-11-25T07:33:46;9.80;99.90
21061;DHT22;10689;50.836;3.266;2022-11-25T07:36:17;9.80;99.90
21061;DHT22;10689;50.836;3.266;2022-11-25T07:38:43;9.70;99.90
21061;DHT22;10689;50.836;3.266;2022-11-25T07:41:11;9.70;99.90
21061;DHT22;10689;50.836;3.266;2022-11-25T07:43:43;9.60;99.90
21061;DHT22;10689;50.836;3.266;2022-11-25T07:48:43;9.70;99.90
21061;DHT22;10689;50.836;3.266;2022-11-25T07:51:23;9.60;99.90
21061;DHT22;10689;50.836;3.266;2022-11-25T07:53:52;9.60;99.90
21061;DHT22;10689;50.836;3.266;2022-11-25T07:56:20;9.50;99.90
21061;DHT22;10689;50.836;3.266;2022-11-25T07:58:49;9.50;99.90
21061;DHT22;10689;50.836;3.266;2022-11-25T08:01:18;9.40;99.90
21061;DHT22;10689;50.836;3.266;2022-11-25T08:03:46;9.50;99.90
21061;DHT22;10689;50.836;3.266;2022-11-25T08:06:17;9.60;99.90
21061;DHT22;10689;50.836;3.266;2022-11-25T08:08:46;9.70;99.90
21061;DHT22;10689;50.836;3.266;2022-11-25T08:11:15;9.60;99.90
21061;DHT22;10689;50.836;3.266;2022-11-25T08:13:42;9.50;99.90
21061;DHT22;10689;50.836;3.266;2022-11-25T08:16:14;9.50;99.90
21061;DHT22;10689;50.836;3.266;2022-11-25T08:18:41;9.50;99.90
21061;DHT22;10689;50.836;3.266;2022-11-25T08:21:08;9.40;99.90
21061;DHT22;10689;50.836;3.266;2022-11-25T08:23:36;9.30;99.90
21061;DHT22;10689;50.836;3.266;2022-11-25T08:26:14;9.20;99.90
21061;DHT22;10689;50.836;3.266;2022-11-25T08:28:43;9.20;99.90
21061;DHT22;10689;50.836;3.266;2022-11-25T08:31:14;9.20;99.90
21061;DHT22;10689;50.836;3.266;2022-11-25T08:33:46;9.40;99.90
21061;DHT22;10689;50.836;3.266;2022-11-25T08:36:12;9.50;99.90
21061;DHT22;10689;50.836;3.266;2022-11-25T08:38:41;9.60;99.90
21061;DHT22;10689;50.836;3.266;2022-11-25T08:41:18;9.70;99.90
21061;DHT22;10689;50.836;3.266;2022-11-25T08:43:45;9.70;99.90
21061;DHT22;10689;50.836;3.266;2022-11-25T08:46:19;9.80;99.90
21061;DHT22;10689;50.836;3.266;2022-11-25T08:48:45;9.90;99.90
21061;DHT22;10689;50.836;3.266;2022-11-25T08:51:18;10.00;99.90
21061;DHT22;10689;50.836;3.266;2022-11-25T08:53:44;10.00;99.90
21061;DHT22;10689;50.836;3.266;2022-11-25T08:56:10;10.10;99.90
21061;DHT22;10689;50.836;3.266;2022-11-25T08:58:39;10.00;99.90
21061;DHT22;10689;50.836;3.266;2022-11-25T09:01:05;9.90;99.90
21061;DHT22;10689;50.836;3.266;2022-11-25T09:03:36;10.00;99.90
21061;DHT22;10689;50.836;3.266;2022-11-25T09:06:03;10.10;99.90
21061;DHT22;10689;50.836;3.266;2022-11-25T09:08:29;10.10;99.90
21061;DHT22;10689;50.836;3.266;2022-11-25T09:10:58;10.10;99.90
21061;DHT22;10689;50.836;3.266;2022-11-25T09:13:26;10.10;99.90
21061;DHT22;10689;50.836;3.266;2022-11-25T09:15:52;10.20;99.90
21061;DHT22;10689;50.836;3.266;2022-11-25T09:18:18;10.30;99.90
21061;DHT22;10689;50.836;3.266;2022-11-25T09:20:51;10.40;99.90
21061;DHT22;10689;50.836;3.266;2022-11-25T09:23:18;10.40;99.90
21061;DHT22;10689;50.836;3.266;2022-11-25T09:25:57;10.40;99.90
21061;DHT22;10689;50.836;3.266;2022-11-25T09:28:24;10.40;99.90
21061;DHT22;10689;50.836;3.266;2022-11-25T09:30:51;10.50;99.90
21061;DHT22;10689;50.836;3.266;2022-11-25T09:33:18;10.50;99.90
21061;DHT22;10689;50.836;3.266;2022-11-25T09:35:47;10.40;99.90
21061;DHT22;10689;50.836;3.266;2022-11-25T09:38:14;10.40;99.90
21061;DHT22;10689;50.836;3.266;2022-11-25T09:52:06;10.40;99.90
21061;DHT22;10689;50.836;3.266;2022-11-25T09:54:44;10.40;99.90
21061;DHT22;10689;50.836;3.266;2022-11-25T10:02:36;10.60;99.90
21061;DHT22;10689;50.836;3.266;2022-11-25T10:05:33;10.60;99.90
21061;DHT22;10689;50.836;3.266;2022-11-25T10:08:22;10.80;99.90
21061;DHT22;10689;50.836;3.266;2022-11-25T10:10:54;10.80;99.90
21061;DHT22;10689;50.836;3.266;2022-11-25T10:19:42;11.00;99.90
21061;DHT22;10689;50.836;3.266;2022-11-25T10:21:48;11.20;99.90
21061;DHT22;10689;50.836;3.266;2022-11-25T10:24:15;11.20;99.90
21061;DHT22;10689;50.836;3.266;2022-11-25T10:27:00;11.40;99.90
21061;DHT22;10689;50.836;3.266;2022-11-25T10:29:31;11.50;99.90
21061;DHT22;10689;50.836;3.266;2022-11-25T10:32:21;11.60;99.90
21061;DHT22;10689;50.836;3.266;2022-11-25T10:34:58;11.70;99.90
21061;DHT22;10689;50.836;3.266;2022-11-25T10:37:30;11.70;99.90
21061;DHT22;10689;50.836;3.266;2022-11-25T10:39:58;11.80;99.90
21061;DHT22;10689;50.836;3.266;2022-11-25T10:42:25;11.90;99.90
21061;DHT22;10689;50.836;3.266;2022-11-25T10:44:54;12.00;99.90
21061;DHT22;10689;50.836;3.266;2022-11-25T10:50:40;12.00;99.90
21061;DHT22;10689;50.836;3.266;2022-11-25T10:53:16;12.10;99.90
21061;DHT22;10689;50.836;3.266;2022-11-25T10:56:02;12.10;99.90
21061;DHT22;10689;50.836;3.266;2022-11-25T10:58:39;12.00;99.90
21061;DHT22;10689;50.836;3.266;2022-11-25T11:01:18;12.10;99.90
21061;DHT22;10689;50.836;3.266;2022-11-25T11:03:51;12.10;99.90
21061;DHT22;10689;50.836;3.266;2022-11-25T11:06:31;12.30;99.90
21061;DHT22;10689;50.836;3.266;2022-11-25T11:08:59;12.20;99.90
21061;DHT22;10689;50.836;3.266;2022-11-25T11:11:25;12.30;99.90
21061;DHT22;10689;50.836;3.266;2022-11-25T11:16:37;12.50;99.90
21061;DHT22;10689;50.836;3.266;2022-11-25T11:19:03;12.60;99.90
21061;DHT22;10689;50.836;3.266;2022-11-25T11:21:35;12.70;99.90
21061;DHT22;10689;50.836;3.266;2022-11-25T11:24:03;12.70;99.90
21061;DHT22;10689;50.836;3.266;2022-11-25T11:26:35;12.90;99.90
21061;DHT22;10689;50.836;3.266;2022-11-25T11:29:14;13.00;99.90
21061;DHT22;10689;50.836;3.266;2022-11-25T11:31:50;13.10;99.90
21061;DHT22;10689;50.836;3.266;2022-11-25T11:43:27;13.20;99.90
21061;DHT22;10689;50.836;3.266;2022-11-25T11:51:09;13.10;99.90
21061;DHT22;10689;50.836;3.266;2022-11-25T11:56:05;13.10;99.90
21061;DHT22;10689;50.836;3.266;2022-11-25T12:01:33;13.00;99.90
21061;DHT22;10689;50.836;3.266;2022-11-25T12:04:14;13.10;99.90
21061;DHT22;10689;50.836;3.266;2022-11-25T12:06:52;13.30;99.90
21061;DHT22;10689;50.836;3.266;2022-11-25T12:09:25;13.40;99.90
21061;DHT22;10689;50.836;3.266;2022-11-25T12:12:03;13.50;99.90
21061;DHT22;10689;50.836;3.266;2022-11-25T12:14:42;13.30;99.90
21061;DHT22;10689;50.836;3.266;2022-11-25T12:25:17;13.30;99.90
21061;DHT22;10689;50.836;3.266;2022-11-25T12:30:22;13.30;99.90
21061;DHT22;10689;50.836;3.266;2022-11-25T12:33:19;13.10;99.90
21061;DHT22;10689;50.836;3.266;2022-11-25T12:36:02;12.90;99.90
21061;DHT22;10689;50.836;3.266;2022-11-25T12:38:36;12.90;99.90
21061;DHT22;10689;50.836;3.266;2022-11-25T12:41:22;13.10;99.90
21061;DHT22;10689;50.836;3.266;2022-11-25T12:44:01;13.30;99.90
21061;DHT22;10689;50.836;3.266;2022-11-25T12:46:40;13.40;99.90
21061;DHT22;10689;50.836;3.266;2022-11-25T12:49:18;13.50;99.90
21061;DHT22;10689;50.836;3.266;2022-11-25T12:57:21;13.70;99.90
21061;DHT22;10689;50.836;3.266;2022-11-25T13:00:06;13.60;99.90
21061;DHT22;10689;50.836;3.266;2022-11-25T13:16:38;12.80;99.90
21061;DHT22;10689;50.836;3.266;2022-11-25T13:19:08;12.80;99.90
21061;DHT22;10689;50.836;3.266;2022-11-25T13:21:57;12.60;99.90
21061;DHT22;10689;50.836;3.266;2022-11-25T13:24:41;12.60;99.90
21061;DHT22;10689;50.836;3.266;2022-11-25T13:27:30;12.60;99.90
21061;DHT22;10689;50.836;3.266;2022-11-25T13:30:00;12.60;99.90
21061;DHT22;10689;50.836;3.266;2022-11-25T13:32:35;12.50;99.90
21061;DHT22;10689;50.836;3.266;2022-11-25T13:37:52;12.50;99.90
21061;DHT22;10689;50.836;3.266;2022-11-25T13:43:00;12.60;99.90
21061;DHT22;10689;50.836;3.266;2022-11-25T13:45:30;12.60;99.90
21061;DHT22;10689;50.836;3.266;2022-11-25T13:48:11;12.70;99.90
21061;DHT22;10689;50.836;3.266;2022-11-25T13:50:39;12.70;99.90
21061;DHT22;10689;50.836;3.266;2022-11-25T13:55:45;12.70;99.90
21061;DHT22;10689;50.836;3.266;2022-11-25T14:00:48;12.90;99.90
21061;DHT22;10689;50.836;3.266;2022-11-25T14:08:41;13.10;99.90
21061;DHT22;10689;50.836;3.266;2022-11-25T14:27:23;12.50;99.90
21061;DHT22;10689;50.836;3.266;2022-11-25T14:29:59;12.60;99.90
21061;DHT22;10689;50.836;3.266;2022-11-25T14:38:07;12.40;99.90
21061;DHT22;10689;50.836;3.266;2022-11-25T14:40:59;12.40;99.90
21061;DHT22;10689;50.836;3.266;2022-11-25T14:43:29;12.30;99.90
21061;DHT22;10689;50.836;3.266;2022-11-25T14:46:13;12.20;99.90
21061;DHT22;10689;50.836;3.266;2022-11-25T14:48:40;12.20;99.90
21061;DHT22;10689;50.836;3.266;2022-11-25T14:51:09;12.20;99.90
21061;DHT22;10689;50.836;3.266;2022-11-25T14:53:44;12.20;99.90
21061;DHT22;10689;50.836;3.266;2022-11-25T14:56:12;12.20;99.90
21061;DHT22;10689;50.836;3.266;2022-11-25T14:58:50;12.20;99.90
21061;DHT22;10689;50.836;3.266;2022-11-25T15:01:25;12.20;99.90
21061;DHT22;10689;50.836;3.266;2022-11-25T15:04:03;12.10;99.90
21061;DHT22;10689;50.836;3.266;2022-11-25T15:06:34;12.00;99.90
21061;DHT22;10689;50.836;3.266;2022-11-25T15:09:01;12.10;99.90
21061;DHT22;10689;50.836;3.266;2022-11-25T15:11:30;12.00;99.90
21061;DHT22;10689;50.836;3.266;2022-11-25T15:14:05;12.00;99.90
21061;DHT22;10689;50.836;3.266;2022-11-25T15:16:37;12.00;99.90
21061;DHT22;10689;50.836;3.266;2022-11-25T15:19:12;11.90;99.90
21061;DHT22;10689;50.836;3.266;2022-11-25T15:21:40;12.00;99.90
21061;DHT22;10689;50.836;3.266;2022-11-25T15:24:25;11.90;99.90
21061;DHT22;10689;50.836;3.266;2022-11-25T15:26:54;11.90;99.90
21061;DHT22;10689;50.836;3.266;2022-11-25T15:29:20;11.80;99.90
21061;DHT22;10689;50.836;3.266;2022-11-25T15:31:47;11.80;99.90
21061;DHT22;10689;50.836;3.266;2022-11-25T15:34:14;11.70;99.90
21061;DHT22;10689;50.836;3.266;2022-11-25T15:36:43;11.70;99.90
21061;DHT22;10689;50.836;3.266;2022-11-25T15:42:07;11.60;99.90
21061;DHT22;10689;50.836;3.266;2022-11-25T15:44:43;11.60;99.90
21061;DHT22;10689;50.836;3.266;2022-11-25T15:47:27;11.50;99.90
21061;DHT22;10689;50.836;3.266;2022-11-25T15:52:35;11.40;99.90
21061;DHT22;10689;50.836;3.266;2022-11-25T15:55:07;11.40;99.90
21061;DHT22;10689;50.836;3.266;2022-11-25T15:57:48;11.40;99.90
21061;DHT22;10689;50.836;3.266;2022-11-25T16:00:17;11.20;99.90
21061;DHT22;10689;50.836;3.266;2022-11-25T16:16:17;11.00;99.90
21061;DHT22;10689;50.836;3.266;2022-11-25T16:26:35;10.80;99.90
21061;DHT22;10689;50.836;3.266;2022-11-25T16:29:13;10.70;99.90
21061;DHT22;10689;50.836;3.266;2022-11-25T16:31:45;10.60;99.90
21061;DHT22;10689;50.836;3.266;2022-11-25T16:34:18;10.60;99.90
21061;DHT22;10689;50.836;3.266;2022-11-25T16:36:44;10.60;99.90
21061;DHT22;10689;50.836;3.266;2022-11-25T16:39:10;10.50;99.90
21061;DHT22;10689;50.836;3.266;2022-11-25T16:41:37;10.40;99.90
21061;DHT22;10689;50.836;3.266;2022-11-25T16:44:22;10.20;99.90
21061;DHT22;10689;50.836;3.266;2022-11-25T16:46:51;10.00;99.90
21061;DHT22;10689;50.836;3.266;2022-11-25T16:49:18;9.90;99.90
21061;DHT22;10689;50.836;3.266;2022-11-25T16:51:44;9.90;99.90
21061;DHT22;10689;50.836;3.266;2022-11-25T16:54:16;9.90;99.90
21061;DHT22;10689;50.836;3.266;2022-11-25T16:56:47;10.00;99.90
21061;DHT22;10689;50.836;3.266;2022-11-25T16:59:29;10.00;99.90
21061;DHT22;10689;50.836;3.266;2022-11-25T17:01:59;10.10;99.90
21061;DHT22;10689;50.836;3.266;2022-11-25T17:04:26;10.00;99.90
21061;DHT22;10689;50.836;3.266;2022-11-25T17:06:54;9.90;99.90
21061;DHT22;10689;50.836;3.266;2022-11-25T17:09:19;9.80;99.90
21061;DHT22;10689;50.836;3.266;2022-11-25T17:11:50;9.70;99.90
21061;DHT22;10689;50.836;3.266;2022-11-25T17:14:25;9.60;99.90
21061;DHT22;10689;50.836;3.266;2022-11-25T17:16:52;9.50;99.90
21061;DHT22;10689;50.836;3.266;2022-11-25T17:19:21;9.40;99.90
21061;DHT22;10689;50.836;3.266;2022-11-25T17:21:47;9.30;99.90
21061;DHT22;10689;50.836;3.266;2022-11-25T17:24:18;9.30;99.90
21061;DHT22;10689;50.836;3.266;2022-11-25T17:26:54;9.10;99.90
21061;DHT22;10689;50.836;3.266;2022-11-25T17:29:30;9.10;99.90
21061;DHT22;10689;50.836;3.266;2022-11-25T17:31:56;9.10;99.90
21061;DHT22;10689;50.836;3.266;2022-11-25T17:34:22;9.00;99.90
21061;DHT22;10689;50.836;3.266;2022-11-25T17:36:48;9.00;99.90
21061;DHT22;10689;50.836;3.266;2022-11-25T17:39:19;8.90;99.90
21061;DHT22;10689;50.836;3.266;2022-11-25T17:41:47;8.80;99.90
21061;DHT22;10689;50.836;3.266;2022-11-25T17:44:34;8.80;99.90
21061;DHT22;10689;50.836;3.266;2022-11-25T17:47:00;8.70;99.90
21061;DHT22;10689;50.836;3.266;2022-11-25T17:49:25;8.70;99.90
21061;DHT22;10689;50.836;3.266;2022-11-25T17:51:52;8.70;99.90
21061;DHT22;10689;50.836;3.266;2022-11-25T17:54:18;8.70;99.90
21061;DHT22;10689;50.836;3.266;2022-11-25T17:56:44;8.70;99.90
21061;DHT22;10689;50.836;3.266;2022-11-25T17:59:16;8.70;99.90
21061;DHT22;10689;50.836;3.266;2022-11-25T18:01:43;8.60;99.90
21061;DHT22;10689;50.836;3.266;2022-11-25T18:04:25;8.60;99.90
21061;DHT22;10689;50.836;3.266;2022-11-25T18:06:53;8.50;99.90
21061;DHT22;10689;50.836;3.266;2022-11-25T18:09:19;8.50;99.90
21061;DHT22;10689;50.836;3.266;2022-11-25T18:11:52;8.50;99.90
21061;DHT22;10689;50.836;3.266;2022-11-25T18:14:33;8.50;99.90
21061;DHT22;10689;50.836;3.266;2022-11-25T18:17:06;8.50;99.90
21061;DHT22;10689;50.836;3.266;2022-11-25T18:19:33;8.40;99.90
21061;DHT22;10689;50.836;3.266;2022-11-25T18:22:12;8.50;99.90
21061;DHT22;10689;50.836;3.266;2022-11-25T18:24:42;8.40;99.90
21061;DHT22;10689;50.836;3.266;2022-11-25T18:27:28;8.30;99.90
21061;DHT22;10689;50.836;3.266;2022-11-25T18:29:56;8.40;99.90